東京国際空港の過去48時間の天気

東京国際空港 (Tokyo/Intl)

現在時刻: 8/17 00:33 JST (8/16 15:33 UTC) 以下の時間は現地時間です。

過去48時間のMETAR気象情報
時間 風向 風速(m/s) 視程 気温(℃) 湿度(%) 気圧(hPa) 天気現象
17 00:11 4 10km以上 26 79 1004 しゅう雨
17 00:00 5 10km以上 27 74 1004 弱いしゅう雨
16 23:45 北西 2 10km以上 27 79 1004 強いしゅう雨
16 23:00 西南西 6 10km以上 29 74 1004
16 22:30 南西 5 10km以上 29 74 1004
16 22:00 南西 5 10km以上 29 74 1004
16 21:30 南西 7 10km以上 29 74 1004
16 21:00 南南西 7 10km以上 28 79 1004
16 20:30 南南西 8 10km以上 28 74 1004 弱いしゅう雨
16 20:00 南南西 7 10km以上 28 79 1004 弱いしゅう雨
16 19:34 9 10km以上 28 79 1003 弱いしゅう雨
16 19:30 10 10km以上 28 79 1002 弱いしゅう雨
16 19:12 南南西 10 10km以上 28 79 1003 弱いしゅう雨
16 19:00 9 10km以上 29 70 1003
16 18:30 南西 9 10km以上 30 66 1004
16 18:00 南南西 9 10km以上 30 70 1004
16 17:38 南南西 10 10km以上 30 70 1004
16 17:30 南南西 10 10km以上 30 70 1004
16 17:24 南南西 11 10km以上 30 70 1003
16 17:00 南南西 12 10km以上 30 70 1003
16 16:30 南南西 8 10km以上 30 70 1003
16 16:00 南南西 10 10km以上 30 70 1003
16 15:36 南南西 11 10km以上 30 70 1003
16 15:30 南南西 11 10km以上 31 66 1003
16 15:00 南南西 12 10km以上 31 66 1003
16 14:30 南南西 10 10km以上 32 63 1004
16 14:09 南南西 10 10km以上 31 62 1004
16 14:00 南南西 10 10km以上 31 62 1004
16 13:30 南南西 10 10km以上 31 66 1005
16 13:00 南南西 11 10km以上 31 66 1005
16 12:30 南南西 10 10km以上 32 59 1005
16 12:00 南南西 11 10km以上 32 63 1005
16 11:30 南南西 13 10km以上 32 59 1005
16 11:00 11 10km以上 32 63 1006
16 10:30 南南西 10 10km以上 33 56 1006
16 10:00 南南西 11 10km以上 32 63 1007
16 09:37 11 10km以上 31 66 1007
16 09:30 11 10km以上 31 66 1007
16 09:00 南南西 12 10km以上 31 66 1007
16 08:30 南南西 10 10km以上 30 70 1007
16 08:02 南南西 10 10km以上 30 75 1007
16 08:00 南南西 10 10km以上 30 70 1007
16 07:30 南南西 11 10km以上 30 70 1007
16 07:03 南南西 10 10km以上 29 79 1007
16 07:00 南南西 10 10km以上 29 79 1007
16 06:47 南南西 10 10km以上 29 74 1007
16 06:30 南南西 11 10km以上 28 84 1007
16 06:03 南南西 10 10km以上 28 84 1008
16 06:00 南南西 9 10km以上 28 84 1008
16 05:30 南南西 9 10km以上 28 84 1008
16 05:00 南南西 8 10km以上 28 84 1008
16 04:30 10 10km以上 27 89 1008
16 04:00 南南西 9 10km以上 27 89 1008
16 03:30 南南西 9 10km以上 28 84 1008
16 03:00 南南西 7 10km以上 28 84 1008
16 02:30 8 10km以上 27 89 1009
16 02:00 南南西 8 10km以上 28 84 1009
16 01:30 南南西 7 10km以上 28 79 1009
16 01:22 南南西 8 10km以上 28 79 1009
16 01:00 9 10km以上 28 79 1009
16 00:40 南南西 8 10km以上 28 84 1009
16 00:30 南南西 8 10km以上 28 79 1010
16 00:00 南南西 8 10km以上 28 79 1010
15 23:30 南南西 8 10km以上 28 84 1010
15 23:00 南南西 9 10km以上 28 84 1011
15 22:30 南南西 9 10km以上 28 84 1011
15 22:00 南南西 8 10km以上 28 84 1011
15 21:31 南南西 8 10km以上 29 79 1011
15 21:30 南南西 8 10km以上 29 79 1011
15 21:00 南南西 10 10km以上 29 79 1012
15 20:30 南南西 10 10km以上 29 74 1012
15 20:00 南南西 9 10km以上 29 74 1012
15 19:30 南南西 8 10km以上 29 74 1012
15 19:27 南南西 8 10km以上 29 79 1012
15 19:00 南南西 9 10km以上 29 79 1011
15 18:30 南南西 10 10km以上 29 79 1011
15 18:00 南南西 10 10km以上 29 74 1011
15 17:39 南南西 10 10km以上 29 79 1011
15 17:30 11 10km以上 29 79 1011
15 17:00 南南西 11 10km以上 30 70 1011
15 16:31 11 10km以上 30 75 1011
15 16:30 11 10km以上 30 75 1011
15 16:10 11 10km以上 30 75 1011
15 16:00 10 10km以上 30 75 1011
15 15:30 11 10km以上 31 70 1012
15 15:26 11 10km以上 31 70 1012
15 15:00 11 10km以上 31 70 1012
15 14:39 10 10km以上 31 66 1012
15 14:30 9 10km以上 31 70 1012
15 14:00 10 10km以上 32 67 1012
15 13:30 9 10km以上 32 67 1013
15 13:00 9 10km以上 32 67 1013
15 12:30 8 10km以上 32 71 1013
15 12:00 10 10km以上 32 67 1013
15 11:30 12 10km以上 31 70 1014
15 11:00 10 10km以上 31 70 1014
15 10:30 9 10km以上 32 67 1014
15 10:00 9 10km以上 32 63 1014
15 09:30 8 10km以上 32 63 1014
15 09:00 9 10km以上 31 66 1014
15 08:30 8 10km以上 32 63 1014
15 08:00 南南西 8 10km以上 31 66 1014
15 07:30 南南西 8 10km以上 31 66 1014
15 07:18 南南西 8 10km以上 31 66 1014
15 07:00 南南西 7 10km以上 30 70 1014
15 06:30 南南西 9 10km以上 29 79 1014
15 06:00 南南西 7 10km以上 28 84 1014
15 05:30 南南西 8 10km以上 28 84 1014
15 05:00 南南西 8 10km以上 28 84 1014
15 04:30 南南西 8 10km以上 28 84 1014
15 04:00 南南西 7 10km以上 28 84 1013
15 03:30 南南西 6 10km以上 28 79 1013
15 03:00 南南西 7 10km以上 28 79 1013
15 02:30 南南西 7 10km以上 28 84 1013
15 02:00 南南西 7 10km以上 28 79 1013
15 01:30 南南西 7 10km以上 28 84 1013
15 01:00 南南西 7 10km以上 28 79 1013
RJTT 161511Z 35008KT 9999 SHRA FEW010 BKN030 BKN/// 26/22 Q1004 RMK 1ST010 5CU030 A2967
RJTT 161500Z 35009KT 9999 -SHRA FEW015 BKN025 BKN/// 27/22 Q1004 NOSIG RMK 1CU015 5CU025 A2967
RJTT 161445Z 32003KT 290V360 9999 R34L/P2000N R22/P2000N R34R/P2000N R23/P2000N +SHRA FEW015 BKN020 BKN/// 27/23 Q1004 RMK 1CU015 5CU020 A2966
RJTT 161400Z 24012KT 9999 FEW020 BKN030 BKN/// 29/24 Q1004 BECMG 30012KT RMK 1CU020 5CU030 A2967 MOD TURB OBS AT 1334Z OSHIMA BTN FL200 AND FL150 BY A320
RJTT 161330Z 23010KT 180V250 9999 FEW025 SCT035 BKN/// 29/24 Q1004 BECMG 30012KT
RJTT 161300Z 22010KT 9999 FEW025 SCT045 BKN/// 29/24 Q1004 BECMG 30012KT RMK 1CU025 3SC045 A2966
RJTT 161230Z 23014KT 180V260 9999 FEW025 SCT045 BKN/// 29/24 Q1004 BECMG 30012KT
RJTT 161200Z 21014KT 9999 FEW025 BKN/// 28/24 Q1004 NOSIG RMK 1CU025 A2966
RJTT 161130Z 20016KT 160V230 9999 -SHRA FEW025 SCT150 BKN/// 28/23 Q1004 NOSIG
RJTT 161100Z 21014KT 9999 -SHRA FEW025 SCT090 BKN/// 28/24 Q1004 NOSIG
RJTT 161034Z 19018G28KT 170V240 9999 -SHRA FEW025 SCT090 BKN130 28/24 Q1003 RMK 1CU025 3AC090 6AC130 A2964
RJTT 161030Z 19020KT 9999 -SHRA FEW025 SCT090 BKN130 28/24 Q1002 TEMPO 22020G30KT
RJTT 161012Z 20019G29KT 9999 -SHRA FEW025 SCT120 BKN/// 28/24 Q1003 RMK 1CU025 4AC120 A2963 MOD TURB OBS AT 0950Z HILLS BTN 12000FT AND FL150 BY A320 AND OBS AT 0952Z 15NM N STONE BTN 12000FT AND 11000FT IN DES BY A321
RJTT 161000Z 19018KT 9999 FEW025 SCT120 BKN/// 29/23 Q1003 TEMPO 22020G30KT RMK 1CU025 4AC120 A2964
RJTT 160930Z 22018KT 180V250 9999 FEW025 SCT170 BKN/// 30/23 Q1004 TEMPO 22018G28KT RMK 1CU025 3AC170 A2966
RJTT 160900Z 21018KT 9999 FEW020 SCT180 BKN/// 30/24 Q1004 TEMPO 22018G28KT RMK 1CU020 3AC180 A2966
RJTT 160838Z 21019G31KT 9999 FEW020 SCT170 BKN/// 30/24 Q1004 RMK 1CU020 3AC170 A2965
RJTT 160830Z 21020KT 9999 FEW020 SCT180 BKN/// 30/24 Q1004 TEMPO 22022G32KT
RJTT 160824Z 21021G31KT 9999 FEW020 SCT180 BKN/// 30/24 Q1003 RMK 1CU020 3AC180 A2964
RJTT 160800Z 21023KT 9999 FEW020 SCT180 BKN/// 30/24 Q1003 TEMPO 22024G34KT RMK 1CU020 3AC180 A2964
RJTT 160730Z 21015G26KT 170V240 9999 FEW020 SCT170 BKN/// 30/24 Q1003 NOSIG
RJTT 160700Z 20020G31KT 9999 FEW020 SCT170 BKN/// 30/24 Q1003 NOSIG RMK 1CU020 4AC170 A2964
RJTT 160636Z 20022G32KT 9999 FEW020 SCT170 BKN/// 30/24 Q1003 RMK 1CU020 3AC170 A2964
RJTT 160630Z 20022KT 9999 FEW020 SCT170 BKN/// 31/24 Q1003 TEMPO 22024G34KT
RJTT 160600Z 20023G35KT 9999 FEW020 BKN/// 31/24 Q1003 NOSIG RMK 1CU020 A2964
RJTT 160530Z 20020G30KT 9999 FEW020 BKN/// 32/24 Q1004 NOSIG
RJTT 160509Z 20019G29KT 9999 FEW025 BKN/// 31/23 Q1004 RMK 1CU025 A2966
RJTT 160500Z 20020KT 9999 FEW020 BKN/// 31/23 Q1004 TEMPO 22026G36KT RMK 1CU020 A2966
RJTT 160430Z 21019G30KT 9999 FEW020 BKN/// 31/24 Q1005 NOSIG
RJTT 160400Z 21022G32KT 170V240 9999 FEW020 BKN/// 31/24 Q1005 NOSIG RMK 1CU020 A2969
RJTT 160330Z 21020G31KT 180V240 9999 FEW015 BKN/// 32/23 Q1005 NOSIG
RJTT 160300Z 20021G31KT 9999 FEW020 BKN/// 32/24 Q1005 NOSIG
RJTT 160230Z 21025G36KT 170V230 9999 FEW020 SCT150 BKN/// 32/23 Q1005 NOSIG
RJTT 160200Z 19022G34KT 9999 FEW015 SCT150 BKN/// 32/24 Q1006 NOSIG RMK 1CU015 4AC150 A2972
RJTT 160130Z 20020G33KT 9999 FEW015 SCT150 BKN/// 33/23 Q1006 NOSIG RMK 1CU015 3AC150 A2973
RJTT 160100Z 20021KT 9999 FEW015 BKN/// 32/24 Q1007 TEMPO 20026G36KT RMK 1CU015 A2974
RJTT 160037Z 19021G31KT 9999 FEW015 BKN/// 31/24 Q1007 RMK 1CU015 A2975
RJTT 160030Z 19022KT 9999 FEW015 BKN/// 31/24 Q1007 TEMPO 20026G36KT RMK 1CU015 A2975
RJTT 160000Z 20023G35KT 9999 FEW015 BKN/// 31/24 Q1007 NOSIG
RJTT 152330Z 20020G33KT 9999 FEW015 BKN/// 30/24 Q1007 NOSIG
RJTT 152302Z 20020G30KT 9999 FEW015 BKN/// 30/25 Q1007 RMK 1CU015 A2975
RJTT 152300Z 20020KT 9999 FEW015 BKN/// 30/24 Q1007 TEMPO 20022G32KT RMK 1CU015 A2975
RJTT 152230Z 20022G32KT 9999 FEW015 BKN/// 30/24 Q1007 NOSIG RMK 1CU015 A2975
RJTT 152203Z 21020G30KT 9999 FEW015 BKN/// 29/25 Q1007 RMK 1CU015 A2976
RJTT 152200Z 21020KT 9999 FEW015 BKN/// 29/25 Q1007 TEMPO 20022G32KT
RJTT 152147Z 21019G29KT 9999 FEW015 BKN/// 29/24 Q1007 RMK 1CU015 A2976
RJTT 152130Z 20021KT 9999 FEW015 BKN/// 28/25 Q1007 TEMPO 20022G32KT RMK 1CU015 A2976
RJTT 152103Z 20019G29KT 9999 FEW015 SCT170 BKN/// 28/25 Q1008 RMK 1CU015 4AC170 A2977
RJTT 152100Z 20018KT 9999 FEW015 SCT170 BKN/// 28/25 Q1008 TEMPO 20020G30KT RMK 1CU015 4AC170 A2977
RJTT 152030Z 20018KT 9999 FEW015 SCT150 BKN/// 28/25 Q1008 TEMPO 20020G30KT
RJTT 152000Z 20016KT 9999 FEW015 SCT130 BKN/// 28/25 Q1008 NOSIG RMK 1CU015 3AC130 A2979
RJTT 151930Z 19020KT 9999 FEW015 SCT150 BKN/// 27/25 Q1008 NOSIG
RJTT 151900Z 20017KT 9999 FEW015 SCT150 BKN/// 27/25 Q1008 NOSIG RMK 1CU015 3AC150 A2978
RJTT 151830Z 20017KT 9999 FEW015 SCT150 BKN/// 28/25 Q1008 NOSIG
RJTT 151800Z 20014KT 9999 FEW020 BKN/// 28/25 Q1008 NOSIG RMK 1CU020 A2979
RJTT 151730Z 19016KT 9999 FEW020 BKN/// 27/25 Q1009 NOSIG RMK 1CU020 A2980
RJTT 151700Z 20015KT 9999 FEW020 BKN/// 28/25 Q1009 NOSIG RMK 1CU020 A2981
RJTT 151630Z 20014KT 9999 FEW020 BKN/// 28/24 Q1009 NOSIG RMK 1CU020 A2981
RJTT 151622Z 20016G26KT 9999 FEW020 BKN/// 28/24 Q1009 RMK 1CU020 A2981
RJTT 151600Z 19017KT 9999 FEW020 BKN/// 28/24 Q1009 NOSIG RMK 1CU020 A2982
RJTT 151540Z 20016G26KT 9999 FEW020 BKN/// 28/25 Q1009 RMK 1CU020 A2982
RJTT 151530Z 20016KT 9999 FEW020 BKN/// 28/24 Q1010 NOSIG
RJTT 151500Z 20016KT 9999 FEW015 BKN/// 28/24 Q1010 NOSIG RMK 1CU015 A2984
RJTT 151430Z 21016G27KT 9999 FEW020 BKN/// 28/25 Q1010 NOSIG
RJTT 151400Z 20018KT 9999 FEW020 SCT140 BKN/// 28/25 Q1011 NOSIG RMK 1CU020 3AC140 A2986
RJTT 151330Z 20017KT 9999 FEW025 BKN/// 28/25 Q1011 NOSIG
RJTT 151300Z 20016KT 9999 FEW025 BKN/// 28/25 Q1011 NOSIG RMK 1CU025 A2987
RJTT 151231Z 21016G26KT 160V230 9999 FEW025 BKN/// 29/25 Q1011 RMK 1CU025 A2988
RJTT 151230Z 21016KT 160V230 9999 FEW025 BKN/// 29/25 Q1011 NOSIG RMK 1CU025 A2988
RJTT 151200Z 20019KT 9999 FEW025 BKN/// 29/25 Q1012 NOSIG RMK 1CU025 A2988
RJTT 151130Z 20019KT 9999 FEW020 BKN/// 29/24 Q1012 NOSIG
RJTT 151100Z 20017KT 9999 FEW020 BKN/// 29/24 Q1012 NOSIG
RJTT 151030Z 20016G27KT 9999 FEW020 BKN/// 29/24 Q1012 NOSIG
RJTT 151027Z 20016G27KT 9999 FEW020 BKN/// 29/25 Q1012 RMK 1CU020 A2988
RJTT 151000Z 20018KT 9999 FEW020 BKN/// 29/25 Q1011 TEMPO 20020G30KT RMK 1CU020 A2988
RJTT 150930Z 20019KT 9999 FEW025 FEW035CB BKN/// 29/25 Q1011 TEMPO 20020G30KT
RJTT 150900Z 20019G29KT 9999 FEW030 FEW035CB BKN/// 29/24 Q1011 NOSIG RMK 1CU030 1CB035 A2987 CB SW
RJTT 150839Z 20020G30KT 9999 FEW030 BKN/// 29/25 Q1011 RMK 1CU030 A2987
RJTT 150830Z 19022KT 9999 FEW030 BKN/// 29/25 Q1011 TEMPO 20024G34KT RMK 1CU030 A2986
RJTT 150800Z 20021G32KT 9999 FEW030 BKN/// 30/24 Q1011 NOSIG RMK 1CU030 A2986
RJTT 150731Z 19021G34KT 9999 FEW030 BKN/// 30/25 Q1011 RMK 1CU030 A2987
RJTT 150730Z 19021KT 9999 FEW030 BKN/// 30/25 Q1011 NOSIG RMK 1CU030 A2987
RJTT 150710Z 19021G32KT 9999 FEW030 BKN/// 30/25 Q1011 RMK 1CU030 A2988
RJTT 150700Z 19020KT 9999 FEW030 BKN/// 30/25 Q1011 NOSIG
RJTT 150630Z 19021KT 9999 FEW030 BKN/// 31/25 Q1012 NOSIG
RJTT 150626Z 18021G31KT 9999 FEW030 BKN/// 31/25 Q1012 RMK 1CU030 A2988
RJTT 150600Z 18022KT 9999 FEW030 BKN/// 31/25 Q1012 NOSIG RMK 1CU030 A2989
RJTT 150539Z 19020G30KT 9999 FEW030 BKN/// 31/24 Q1012 RMK 1CU030 A2989
RJTT 150530Z 19018KT 9999 FEW030 BKN/// 31/25 Q1012 NOSIG RMK 1CU030 A2990
RJTT 150500Z 19020G30KT 9999 FEW020 BKN/// 32/25 Q1012 NOSIG RMK 1CU020 A2990
RJTT 150430Z 19017KT 9999 FEW020 BKN/// 32/25 Q1013 NOSIG
RJTT 150400Z 19018KT 9999 FEW025 BKN/// 32/25 Q1013 NOSIG RMK 1CU025 A2992
RJTT 150330Z 19016KT 9999 FEW025 BKN/// 32/26 Q1013 NOSIG
RJTT 150300Z 19019KT 9999 FEW025 BKN/// 32/25 Q1013 NOSIG RMK 1CU025 A2993
RJTT 150230Z 19023KT 9999 FEW025 BKN/// 31/25 Q1014 NOSIG RMK 1CU025 A2995
RJTT 150200Z 19019KT 9999 FEW025 BKN/// 31/25 Q1014 NOSIG RMK 1CU025 A2995
RJTT 150130Z 19018KT 9999 FEW025 BKN/// 32/25 Q1014 NOSIG
RJTT 150100Z 19017KT 9999 FEW025 BKN/// 32/24 Q1014 NOSIG RMK 1CU025 A2996
RJTT 150030Z 19016KT 9999 FEW025 BKN/// 32/24 Q1014 NOSIG RMK 1CU025 A2997
RJTT 150000Z 19018KT 9999 FEW025 BKN/// 31/24 Q1014 NOSIG RMK 1CU025 A2997
RJTT 142330Z 19015KT 9999 FEW025 BKN/// 32/24 Q1014 NOSIG
RJTT 142300Z 20015KT 9999 FEW020 BKN/// 31/24 Q1014 NOSIG RMK 1CU020 A2997
RJTT 142230Z 21016G28KT 180V240 9999 FEW020 BKN/// 31/24 Q1014 NOSIG RMK 1CU020 A2997
RJTT 142218Z 20015G26KT 160V230 9999 FEW020 BKN/// 31/24 Q1014 RMK 1CU020 A2996
RJTT 142200Z 20014KT 170V230 9999 FEW020 BKN/// 30/24 Q1014 NOSIG RMK 1CU020 A2997
RJTT 142130Z 20017KT 9999 FEW015 BKN/// 29/25 Q1014 NOSIG
RJTT 142100Z 20013KT 9999 FEW015 BKN/// 28/25 Q1014 NOSIG RMK 1CU015 A2996
RJTT 142030Z 20015KT 9999 FEW015 BKN/// 28/25 Q1014 NOSIG RMK 1CU015 A2996
RJTT 142000Z 20016KT 9999 FEW015 BKN/// 28/25 Q1014 NOSIG RMK 1CU015 A2995
RJTT 141930Z 20015KT 9999 FEW030 BKN/// 28/25 Q1014 NOSIG RMK 1CU030 A2994
RJTT 141900Z 20014KT 9999 FEW030 BKN/// 28/25 Q1013 NOSIG RMK 1CU030 A2993
RJTT 141830Z 20012KT 9999 FEW015 BKN/// 28/24 Q1013 NOSIG
RJTT 141800Z 20013KT 9999 FEW015 SCT/// 28/24 Q1013 NOSIG RMK 1CU015 A2993
RJTT 141730Z 20013KT 9999 FEW015 SCT/// 28/25 Q1013 NOSIG
RJTT 141700Z 20013KT 9999 FEW015 BKN/// 28/24 Q1013 NOSIG RMK 1CU015 A2993
RJTT 141630Z 20013KT 9999 FEW015 BKN/// 28/25 Q1013 NOSIG
RJTT 141600Z 21013KT 9999 FEW015 SCT/// 28/24 Q1013 NOSIG RMK 1CU015 A2993